Michael S — WDE9794 — position and weather

sailwx.info

Track history (hours):
 
Tides and Currents Weather Stations Pressure Air Temp Water Temp Dewpoint Dewpoint Depression Visibility Wind Speed Wind Dir Waves Ship Positions

Michael S

Owner: Bisso Tow Boats Inc., New Orleans, LA. More information available from US FCC via Universal Licensing System and Coast Guard Vessel Documentation Center.

Last reported at 2017-Jan-08 19:32 UTC. Time now 2017-Jan-21 23:51 UTC.
Position N 29°56' W 090°08'.
Warning: this ship's position is 13 days out of date.

Length 33 m; draft 3 m.

Type: Towing. MMSI: 367413700.

Date/timePositionNaut miles runAvg speedWind from/ knotsBaromVisibWave heightAir tempDewpointWater temp
2017-Jan-08 19:32N 29°56' W 090°08'0 0.0
2017-Jan-08 18:32N 29°56' W 090°08'  
2017-Jan-04 18:33N 29°57' W 090°03'4 4.3
2017-Jan-04 17:32N 29°56' W 090°08'0 0.0
2017-Jan-04 16:33N 29°56' W 090°08'1 0.8
2017-Jan-04 15:33N 29°56' W 090°08'0 0.2
2017-Jan-04 14:31N 29°56' W 090°09'0 0.0
2017-Jan-04 13:31N 29°56' W 090°09'0 0.0
2017-Jan-04 12:31N 29°56' W 090°09'3 1.1
2017-Jan-04 09:29N 29°55' W 090°05'0 0.0
2017-Jan-04 02:09N 29°55' W 090°06'0 0.0
2017-Jan-04 01:33N 29°55' W 090°06'0 0.0
2017-Jan-03 20:33N 29°55' W 090°06'0 0.4
2017-Jan-03 19:31N 29°55' W 090°05'1 0.3
2017-Jan-03 16:33N 29°55' W 090°04'3 0.2
2017-Jan-03 02:32N 29°55' W 090°08'1 1.2
2017-Jan-03 01:30N 29°55' W 090°07'0 0.1
2017-Jan-02 23:22N 29°54' W 090°07'1 0.1
2017-Jan-02 15:22N 29°55' W 090°08'2 2.1
2017-Jan-02 14:28N 29°57' W 090°09'4 4.3
2017-Jan-02 13:28N 29°57' W 090°03'2 0.5
2017-Jan-02 09:09N 29°57' W 090°01'0 0.0
2017-Jan-02 05:19N 29°57' W 090°01'6 1.5
2017-Jan-02 01:05N 29°55' W 090°08'2 2.7
2017-Jan-02 00:31N 29°56' W 090°09'1 1.3
2017-Jan-01 23:33N 29°55' W 090°08'4 0.7
2017-Jan-01 18:07N 29°55' W 090°04'0 0.6
2017-Jan-01 17:26N 29°55' W 090°04'6 6.4
2017-Jan-01 16:33N 29°56' W 090°11'8 0.6
2017-Jan-01 03:31N 29°56' W 090°20'6 6.1
2017-Jan-01 02:33N 29°56' W 090°13'4 1.3
2016-Dec-31 23:15N 29°55' W 090°08'2 2.5
2016-Dec-31 22:29N 29°57' W 090°08'1 1.3
2016-Dec-31 21:33N 29°55' W 090°08'0 0.0
2016-Dec-31 20:33N 29°55' W 090°08'0 0.0
2016-Dec-31 19:30N 29°55' W 090°08'0 0.0
2016-Dec-31 18:33N 29°55' W 090°08'0 0.0
2016-Dec-31 17:33N 29°55' W 090°08'1 0.9
2016-Dec-31 16:32N 29°56' W 090°09'1 0.9
2016-Dec-31 15:32N 29°56' W 090°08'0 0.0
2016-Dec-31 14:32N 29°56' W 090°08'0 0.0
2016-Dec-31 13:32N 29°56' W 090°08'0 0.0
2016-Dec-31 12:32N 29°56' W 090°08'0 0.0
2016-Dec-31 11:32N 29°56' W 090°08'0 0.0
2016-Dec-31 10:32N 29°56' W 090°08'0 0.0
2016-Dec-31 09:32N 29°56' W 090°08'0 0.0
2016-Dec-31 08:32N 29°56' W 090°08'0 0.0
2016-Dec-31 07:32N 29°56' W 090°08'0 0.0
2016-Dec-31 06:32N 29°56' W 090°08'0 0.0
2016-Dec-31 05:32N 29°56' W 090°08'0 0.0
2016-Dec-31 04:32N 29°56' W 090°08'0 0.0
2016-Dec-31 03:32N 29°56' W 090°08'0 0.0
2016-Dec-31 02:32N 29°56' W 090°08'0 0.0
2016-Dec-31 01:32N 29°56' W 090°08'0 0.0
2016-Dec-31 00:32N 29°56' W 090°08'0 0.0
2016-Dec-30 23:32N 29°56' W 090°08'0 0.0
2016-Dec-30 22:29N 29°56' W 090°08'0 0.0
2016-Dec-30 21:32N 29°56' W 090°08'0 0.0
2016-Dec-30 20:32N 29°56' W 090°08'0 0.0
2016-Dec-30 19:32N 29°56' W 090°08'0 0.0
2016-Dec-30 18:32N 29°56' W 090°08'0 0.0
2016-Dec-30 17:32N 29°56' W 090°08'0 0.0
2016-Dec-30 16:29N 29°56' W 090°08'0 0.0
2016-Dec-30 15:32N 29°56' W 090°08'0 0.0
2016-Dec-30 14:32N 29°56' W 090°08'0 0.0
2016-Dec-30 13:32N 29°56' W 090°08'0 0.0
2016-Dec-30 12:32N 29°56' W 090°08'0 0.0
2016-Dec-30 11:32N 29°56' W 090°08'0 0.0
2016-Dec-30 10:33N 29°56' W 090°08'  
Track history (hours):
 
Tides and Currents Weather Stations Pressure Air Temp Water Temp Dewpoint Dewpoint Depression Visibility Wind Speed Wind Dir Waves Ship Positions

Michael S

Owner: Bisso Tow Boats Inc., New Orleans, LA. More information available from US FCC via Universal Licensing System and Coast Guard Vessel Documentation Center.

Last reported at 2017-Jan-08 19:32 UTC. Time now 2017-Jan-21 23:51 UTC.
Position N 29°56' W 090°08'.
Warning: this ship's position is 13 days out of date.

Length 33 m; draft 3 m.

Type: Towing. MMSI: 367413700.

Date/timePositionNaut miles runAvg speedWind from/ knotsBaromVisibWave heightAir tempDewpointWater temp
2017-Jan-08 19:32N 29°56' W 090°08'0 0.0
2017-Jan-08 18:32N 29°56' W 090°08'  
2017-Jan-04 18:33N 29°57' W 090°03'4 4.3
2017-Jan-04 17:32N 29°56' W 090°08'0 0.0
2017-Jan-04 16:33N 29°56' W 090°08'1 0.8
2017-Jan-04 15:33N 29°56' W 090°08'0 0.2
2017-Jan-04 14:31N 29°56' W 090°09'0 0.0
2017-Jan-04 13:31N 29°56' W 090°09'0 0.0
2017-Jan-04 12:31N 29°56' W 090°09'3 1.1
2017-Jan-04 09:29N 29°55' W 090°05'0 0.0
2017-Jan-04 02:09N 29°55' W 090°06'0 0.0
2017-Jan-04 01:33N 29°55' W 090°06'0 0.0
2017-Jan-03 20:33N 29°55' W 090°06'0 0.4
2017-Jan-03 19:31N 29°55' W 090°05'1 0.3
2017-Jan-03 16:33N 29°55' W 090°04'3 0.2
2017-Jan-03 02:32N 29°55' W 090°08'1 1.2
2017-Jan-03 01:30N 29°55' W 090°07'0 0.1
2017-Jan-02 23:22N 29°54' W 090°07'1 0.1
2017-Jan-02 15:22N 29°55' W 090°08'2 2.1
2017-Jan-02 14:28N 29°57' W 090°09'4 4.3
2017-Jan-02 13:28N 29°57' W 090°03'2 0.5
2017-Jan-02 09:09N 29°57' W 090°01'0 0.0
2017-Jan-02 05:19N 29°57' W 090°01'6 1.5
2017-Jan-02 01:05N 29°55' W 090°08'2 2.7
2017-Jan-02 00:31N 29°56' W 090°09'1 1.3
2017-Jan-01 23:33N 29°55' W 090°08'4 0.7
2017-Jan-01 18:07N 29°55' W 090°04'0 0.6
2017-Jan-01 17:26N 29°55' W 090°04'6 6.4
2017-Jan-01 16:33N 29°56' W 090°11'8 0.6
2017-Jan-01 03:31N 29°56' W 090°20'6 6.1
2017-Jan-01 02:33N 29°56' W 090°13'4 1.3
2016-Dec-31 23:15N 29°55' W 090°08'2 2.5
2016-Dec-31 22:29N 29°57' W 090°08'1 1.3
2016-Dec-31 21:33N 29°55' W 090°08'0 0.0
2016-Dec-31 20:33N 29°55' W 090°08'0 0.0
2016-Dec-31 19:30N 29°55' W 090°08'0 0.0
2016-Dec-31 18:33N 29°55' W 090°08'0 0.0
2016-Dec-31 17:33N 29°55' W 090°08'1 0.9
2016-Dec-31 16:32N 29°56' W 090°09'1 0.9
2016-Dec-31 15:32N 29°56' W 090°08'0 0.0
2016-Dec-31 14:32N 29°56' W 090°08'0 0.0
2016-Dec-31 13:32N 29°56' W 090°08'0 0.0
2016-Dec-31 12:32N 29°56' W 090°08'0 0.0
2016-Dec-31 11:32N 29°56' W 090°08'0 0.0
2016-Dec-31 10:32N 29°56' W 090°08'0 0.0
2016-Dec-31 09:32N 29°56' W 090°08'0 0.0
2016-Dec-31 08:32N 29°56' W 090°08'0 0.0
2016-Dec-31 07:32N 29°56' W 090°08'0 0.0
2016-Dec-31 06:32N 29°56' W 090°08'0 0.0
2016-Dec-31 05:32N 29°56' W 090°08'0 0.0
2016-Dec-31 04:32N 29°56' W 090°08'0 0.0
2016-Dec-31 03:32N 29°56' W 090°08'0 0.0
2016-Dec-31 02:32N 29°56' W 090°08'0 0.0
2016-Dec-31 01:32N 29°56' W 090°08'0 0.0
2016-Dec-31 00:32N 29°56' W 090°08'0 0.0
2016-Dec-30 23:32N 29°56' W 090°08'0 0.0
2016-Dec-30 22:29N 29°56' W 090°08'0 0.0
2016-Dec-30 21:32N 29°56' W 090°08'0 0.0
2016-Dec-30 20:32N 29°56' W 090°08'0 0.0
2016-Dec-30 19:32N 29°56' W 090°08'0 0.0
2016-Dec-30 18:32N 29°56' W 090°08'0 0.0
2016-Dec-30 17:32N 29°56' W 090°08'0 0.0
2016-Dec-30 16:29N 29°56' W 090°08'0 0.0
2016-Dec-30 15:32N 29°56' W 090°08'0 0.0
2016-Dec-30 14:32N 29°56' W 090°08'0 0.0
2016-Dec-30 13:32N 29°56' W 090°08'0 0.0
2016-Dec-30 12:32N 29°56' W 090°08'0 0.0
2016-Dec-30 11:32N 29°56' W 090°08'0 0.0
2016-Dec-30 10:33N 29°56' W 090°08'  

Dump ship's entire track history